VDP weather

Public forecast

Using degrees Celsius for public forecast. Weather courtesy of forecast.io.

Current aviation weather report (METAR) for Valle de La Pascua Airport

Report is more than 6 hours old.

Retrieved 2018/09/23 17:00 UTC (2 years ago):

SVVP 231700Z /////KT 9999 FEW027 SCT100 SCT300 27/16 Q1019

Closest aviation forecast (TAF) to Valle de La Pascua Airport

Forecast is more than 12 hours old.

Closest forecast is El Embrujo Airport, 44.9 nm (83.1 km) SW. Retrieved 2019/05/10 00:00 UTC (1 year ago):

TAF SVMB 102200Z 1100/1200 22002KT 9000 DZ BKN016 TX29/19Z TN24/08Z BECMG 1104/1108 32002KT 9000 +DZ BKN020